createdAt,value
2018-08-03T00:00:43.043Z,12.40
2018-08-03T00:03:12.864Z,12.90
2018-08-03T00:05:42.618Z,12.70
2018-08-03T00:08:12.717Z,13.33
2018-08-03T00:10:42.374Z,12.43
2018-08-03T00:13:11.969Z,12.17
2018-08-03T00:15:41.572Z,12.53
2018-08-03T00:18:11.438Z,12.73
2018-08-03T00:20:41.093Z,12.53
2018-08-03T00:23:10.891Z,13.50
2018-08-03T00:25:40.847Z,13.33
2018-08-03T00:28:10.598Z,13.03
2018-08-03T00:30:40.615Z,12.37
2018-08-03T00:33:10.426Z,11.57
2018-08-03T00:35:40.450Z,12.27
2018-08-03T00:38:10.319Z,12.00
2018-08-03T00:40:39.829Z,11.87
2018-08-03T00:43:09.549Z,11.90
2018-08-03T00:45:39.222Z,12.73
2018-08-03T00:48:09.302Z,13.27
2018-08-03T00:50:39.031Z,14.00
2018-08-03T00:53:08.710Z,12.53
2018-08-03T00:55:38.615Z,13.60
2018-08-03T00:58:08.424Z,13.23
2018-08-03T01:00:38.155Z,13.63
2018-08-03T01:03:08.407Z,12.70
2018-08-03T01:05:38.302Z,13.50
2018-08-03T01:08:08.323Z,13.50
2018-08-03T01:10:38.251Z,13.33
2018-08-03T01:13:07.838Z,13.63
2018-08-03T01:15:37.546Z,13.97
2018-08-03T01:18:07.332Z,13.03
2018-08-03T01:20:36.845Z,13.47
2018-08-03T01:23:06.592Z,12.83
2018-08-03T01:25:36.563Z,13.83
2018-08-03T01:28:06.662Z,13.27
2018-08-03T01:30:36.633Z,13.07
2018-08-03T01:33:06.447Z,12.80
2018-08-03T01:35:36.310Z,13.77
2018-08-03T01:38:06.392Z,12.53
2018-08-03T01:40:36.063Z,13.70
2018-08-03T01:43:05.685Z,14.20
2018-08-03T01:45:35.305Z,12.93
2018-08-03T01:48:05.036Z,14.13
2018-08-03T01:50:34.715Z,13.80
2018-08-03T01:53:04.578Z,13.73
2018-08-03T01:55:34.435Z,13.63
2018-08-03T01:58:04.322Z,12.90
2018-08-03T02:00:34.282Z,12.90
2018-08-03T02:03:04.055Z,12.97
2018-08-03T02:05:33.662Z,12.30
2018-08-03T02:08:03.390Z,12.67
2018-08-03T02:10:33.494Z,11.27
2018-08-03T02:13:03.244Z,12.23
2018-08-03T02:15:32.839Z,13.07
2018-08-03T02:18:02.870Z,12.63
2018-08-03T02:20:32.706Z,12.63
2018-08-03T02:23:02.330Z,13.40
2018-08-03T02:25:32.230Z,13.47
2018-08-03T02:28:01.743Z,12.87
2018-08-03T02:30:31.754Z,14.37
2018-08-03T02:33:01.329Z,13.63
2018-08-03T02:35:30.982Z,13.77
2018-08-03T02:38:00.636Z,14.30
2018-08-03T02:40:30.200Z,16.27
2018-08-03T02:42:59.915Z,13.80
2018-08-03T02:45:29.502Z,16.17
2018-08-03T02:47:59.384Z,15.20
2018-08-03T02:50:29.333Z,15.37
2018-08-03T02:52:59.011Z,14.60
2018-08-03T02:55:28.654Z,15.40
2018-08-03T02:57:58.319Z,13.53
2018-08-03T03:00:28.080Z,13.47
2018-08-03T03:02:57.700Z,13.33
2018-08-03T03:05:27.494Z,13.00
2018-08-03T03:07:57.336Z,13.73
2018-08-03T03:10:26.849Z,13.00
2018-08-03T03:12:56.358Z,13.20
2018-08-03T03:15:26.034Z,13.90
2018-08-03T03:17:55.867Z,15.33
2018-08-03T03:20:25.932Z,14.30
2018-08-03T03:22:55.787Z,14.13
2018-08-03T03:25:25.739Z,14.80
2018-08-03T03:27:55.406Z,15.63
2018-08-03T03:30:25.405Z,16.50
2018-08-03T03:32:55.512Z,16.47
2018-08-03T03:35:25.323Z,16.60
2018-08-03T03:37:55.149Z,15.50
2018-08-03T03:40:24.800Z,14.87
2018-08-03T03:42:54.468Z,15.73
2018-08-03T03:45:24.119Z,14.73
2018-08-03T03:47:53.818Z,15.40
2018-08-03T03:50:23.897Z,15.30
2018-08-03T03:52:53.783Z,14.97
2018-08-03T03:55:23.671Z,15.17
2018-08-03T03:57:53.381Z,13.87
2018-08-03T04:00:23.095Z,16.33
2018-08-03T04:02:52.958Z,16.87
2018-08-03T04:05:22.686Z,20.10
2018-08-03T04:07:52.647Z,16.90
2018-08-03T04:10:22.096Z,17.13
2018-08-03T04:12:51.622Z,16.93
2018-08-03T04:15:21.354Z,16.17
2018-08-03T04:17:51.110Z,15.40
2018-08-03T04:20:21.164Z,15.23
2018-08-03T04:22:51.203Z,16.00
2018-08-03T04:25:20.881Z,14.23
2018-08-03T04:27:50.613Z,16.00
2018-08-03T04:30:20.648Z,20.07
2018-08-03T04:32:50.462Z,18.43
2018-08-03T04:35:20.059Z,21.70
2018-08-03T04:37:49.834Z,21.30
2018-08-03T04:40:19.671Z,18.80
2018-08-03T04:42:49.411Z,23.80
2018-08-03T04:45:19.375Z,19.20
2018-08-03T04:47:49.842Z,17.20
2018-08-03T04:50:19.902Z,17.87
2018-08-03T04:52:49.931Z,16.33
2018-08-03T04:55:19.894Z,17.60
2018-08-03T04:57:49.666Z,16.33
2018-08-03T05:00:19.495Z,16.03
2018-08-03T05:02:49.294Z,17.00
2018-08-03T05:05:19.054Z,17.30
2018-08-03T05:07:48.759Z,17.93
2018-08-03T05:10:18.411Z,19.60
2018-08-03T05:12:48.123Z,19.43
2018-08-03T05:15:17.786Z,19.20
2018-08-03T05:17:47.713Z,19.57
2018-08-03T05:20:17.686Z,20.07
2018-08-03T05:22:47.708Z,19.90
2018-08-03T05:25:17.442Z,19.57
2018-08-03T05:27:47.203Z,20.40
2018-08-03T05:30:17.274Z,18.70
2018-08-03T05:32:46.859Z,20.40
2018-08-03T05:35:16.794Z,21.67
2018-08-03T05:37:46.423Z,20.77
2018-08-03T05:40:16.303Z,20.23
2018-08-03T05:42:45.886Z,18.63
2018-08-03T05:45:15.655Z,18.30
2018-08-03T05:47:45.731Z,18.33
2018-08-03T05:50:15.663Z,17.10
2018-08-03T05:52:45.395Z,16.87
2018-08-03T05:55:15.366Z,16.23
2018-08-03T05:57:45.230Z,12.70
2018-08-03T06:00:14.924Z,13.63
2018-08-03T06:02:44.568Z,10.33
2018-08-03T06:05:14.479Z,12.10
2018-08-03T06:07:44.226Z,10.43
2018-08-03T06:10:13.890Z,9.73
2018-08-03T06:12:44.003Z,10.43
2018-08-03T06:15:14.097Z,8.00
2018-08-03T06:17:43.851Z,8.70
2018-08-03T06:20:14.105Z,9.17
2018-08-03T06:22:43.702Z,10.20
2018-08-03T06:25:13.680Z,11.23
2018-08-03T06:27:43.627Z,10.87
2018-08-03T06:30:13.615Z,11.25
2018-08-03T06:32:43.610Z,8.18
2018-08-03T06:35:13.554Z,11.70
2018-08-03T06:37:43.459Z,8.27
2018-08-03T06:40:13.178Z,10.00
2018-08-03T06:42:42.852Z,12.03
2018-08-03T06:45:12.650Z,11.10
2018-08-03T06:47:42.515Z,10.00
2018-08-03T06:50:12.531Z,10.03
2018-08-03T06:52:42.515Z,9.70
2018-08-03T06:55:12.162Z,8.90
2018-08-03T06:57:41.690Z,9.63
2018-08-03T07:00:11.343Z,9.73
2018-08-03T07:02:41.177Z,10.25
2018-08-03T07:05:11.316Z,9.43
2018-08-03T07:07:40.974Z,10.68
2018-08-03T07:10:11.298Z,9.55
2018-08-03T07:12:41.067Z,11.43
2018-08-03T07:15:10.593Z,12.00
2018-08-03T07:17:40.458Z,10.15
2018-08-03T07:20:10.451Z,11.45
2018-08-03T07:22:40.276Z,10.63
2018-08-03T07:25:09.963Z,10.95
2018-08-03T07:27:39.645Z,10.15
2018-08-03T07:30:09.223Z,10.75
2018-08-03T07:32:38.830Z,9.68
2018-08-03T07:35:08.623Z,9.35
2018-08-03T07:37:38.406Z,9.23
2018-08-03T07:40:08.248Z,9.60
2018-08-03T07:42:38.146Z,11.10
2018-08-03T07:45:08.065Z,10.25
2018-08-03T07:47:37.878Z,8.35
2018-08-03T07:50:07.935Z,8.45
2018-08-03T07:52:37.604Z,7.85
2018-08-03T07:55:07.588Z,9.40
2018-08-03T07:57:37.379Z,8.60
2018-08-03T08:00:07.594Z,8.35
2018-08-03T08:02:37.218Z,7.62
2018-08-03T08:05:07.138Z,7.12
2018-08-03T08:07:36.620Z,8.38
2018-08-03T08:10:06.450Z,7.37
2018-08-03T08:12:36.170Z,8.25
2018-08-03T08:15:06.626Z,7.33
2018-08-03T08:17:36.606Z,6.87
2018-08-03T08:20:06.259Z,7.90
2018-08-03T08:22:36.135Z,7.17
2018-08-03T08:25:05.912Z,7.45
2018-08-03T08:27:35.652Z,7.87
2018-08-03T08:30:06.192Z,7.10
2018-08-03T08:32:35.844Z,7.85
2018-08-03T08:35:05.728Z,7.65
2018-08-03T08:37:35.435Z,7.15
2018-08-03T08:40:05.384Z,7.87
2018-08-03T08:42:35.054Z,7.12
2018-08-03T08:45:05.321Z,7.03
2018-08-03T08:47:35.194Z,6.92
2018-08-03T08:50:05.897Z,6.70
2018-08-03T08:52:35.610Z,7.65
2018-08-03T08:55:05.258Z,8.20
2018-08-03T08:57:34.868Z,7.33
2018-08-03T09:00:05.275Z,7.20
2018-08-03T09:02:35.412Z,6.65
2018-08-03T09:05:05.187Z,6.83
2018-08-03T09:07:35.015Z,7.95
2018-08-03T09:10:04.729Z,6.87
2018-08-03T09:12:34.387Z,6.37
2018-08-03T09:15:04.529Z,8.18
2018-08-03T09:17:34.330Z,6.22
2018-08-03T09:20:04.579Z,6.60
2018-08-03T09:22:34.281Z,6.45
2018-08-03T09:25:03.979Z,6.60
2018-08-03T09:27:33.578Z,6.40
2018-08-03T09:30:03.596Z,6.00
2018-08-03T09:32:33.462Z,7.00
2018-08-03T09:35:03.414Z,7.08
2018-08-03T09:37:33.259Z,6.17
2018-08-03T09:40:03.121Z,6.00
2018-08-03T09:42:33.021Z,5.70
2018-08-03T09:45:02.623Z,6.28
2018-08-03T09:47:32.271Z,6.53
2018-08-03T09:50:01.857Z,5.95
2018-08-03T09:52:31.743Z,8.68
2018-08-03T09:55:01.650Z,6.10
2018-08-03T09:57:31.174Z,5.55
2018-08-03T10:00:01.135Z,8.30
2018-08-03T10:02:31.011Z,6.90
2018-08-03T10:05:00.848Z,5.80
2018-08-03T10:07:30.719Z,5.72
2018-08-03T10:10:00.747Z,4.72
2018-08-03T10:12:30.374Z,6.67
2018-08-03T10:15:00.052Z,6.17
2018-08-03T10:17:29.750Z,4.87
2018-08-03T10:19:59.370Z,5.62
2018-08-03T10:22:29.021Z,6.03
2018-08-03T10:24:58.711Z,6.15
2018-08-03T10:27:28.542Z,5.37
2018-08-03T10:29:58.317Z,6.20
2018-08-03T10:32:28.079Z,6.47
2018-08-03T10:34:58.113Z,6.20
2018-08-03T10:37:27.943Z,5.67
2018-08-03T10:39:58.014Z,4.90
2018-08-03T10:42:28.106Z,7.10
2018-08-03T10:44:57.946Z,7.05
2018-08-03T10:47:27.820Z,6.62
2018-08-03T10:49:57.422Z,6.17
2018-08-03T10:52:27.067Z,6.03
2018-08-03T10:54:56.777Z,5.22
2018-08-03T10:57:26.450Z,5.55
2018-08-03T10:59:56.264Z,5.33
2018-08-03T11:02:26.257Z,5.40
2018-08-03T11:04:56.007Z,5.25
2018-08-03T11:07:25.619Z,4.37
2018-08-03T11:09:55.584Z,5.08
2018-08-03T11:12:25.178Z,6.37
2018-08-03T11:14:54.966Z,6.45
2018-08-03T11:17:24.953Z,5.60
2018-08-03T11:22:38.017Z,6.12
2018-08-03T11:25:08.455Z,6.90
2018-08-03T11:27:38.172Z,5.35
2018-08-03T11:30:08.934Z,6.20
2018-08-03T11:32:38.907Z,6.15
2018-08-03T11:35:09.705Z,6.62
2018-08-03T11:37:39.455Z,5.62
2018-08-03T11:40:09.642Z,6.60
2018-08-03T11:42:39.380Z,6.08
2018-08-03T11:45:10.314Z,5.62
2018-08-03T11:47:40.059Z,6.30
2018-08-03T11:50:11.003Z,5.40
2018-08-03T11:52:40.690Z,6.10
2018-08-03T11:55:10.227Z,6.58
2018-08-03T11:57:39.785Z,6.10
2018-08-03T12:00:09.418Z,5.70
2018-08-03T12:02:39.183Z,7.92
2018-08-03T12:05:08.835Z,5.55
2018-08-03T12:07:38.555Z,6.03
2018-08-03T12:10:08.675Z,6.45
2018-08-03T12:12:38.727Z,6.37
2018-08-03T12:15:08.480Z,6.12
2018-08-03T12:17:38.326Z,5.85
2018-08-03T12:20:08.209Z,5.17
2018-08-03T12:22:37.803Z,6.22
2018-08-03T12:25:07.852Z,6.15
2018-08-03T12:27:37.703Z,5.10
2018-08-03T12:30:07.478Z,6.12
2018-08-03T12:32:37.530Z,5.83
2018-08-03T12:35:07.247Z,7.03
2018-08-03T12:37:36.918Z,6.10
2018-08-03T12:40:06.617Z,6.28
2018-08-03T12:42:36.430Z,5.90
2018-08-03T12:45:06.311Z,6.15
2018-08-03T12:47:36.411Z,6.60
2018-08-03T12:50:06.269Z,6.42
2018-08-03T12:52:36.201Z,6.58
2018-08-03T12:55:05.874Z,6.28
2018-08-03T12:57:36.042Z,6.72
2018-08-03T13:00:06.871Z,6.42
2018-08-03T13:02:36.686Z,7.70
2018-08-03T13:05:07.073Z,5.87
2018-08-03T13:07:37.092Z,6.22
2018-08-03T13:10:06.723Z,6.65
2018-08-03T13:12:36.825Z,8.08
2018-08-03T13:15:07.175Z,7.37
2018-08-03T13:17:37.115Z,6.53
2018-08-03T13:20:07.309Z,6.78
2018-08-03T13:22:37.165Z,7.12
2018-08-03T13:25:07.168Z,6.17
2018-08-03T13:27:37.208Z,6.42
2018-08-03T13:30:07.578Z,5.80
2018-08-03T13:32:37.439Z,6.67
2018-08-03T13:35:07.388Z,6.10
2018-08-03T13:37:37.124Z,5.97
2018-08-03T13:40:06.792Z,6.58
2018-08-03T13:42:36.590Z,6.42
2018-08-03T13:45:06.602Z,6.50
2018-08-03T13:47:36.694Z,6.12
2018-08-03T13:50:06.458Z,6.08
2018-08-03T13:52:36.113Z,6.70
2018-08-03T13:55:06.299Z,6.28
2018-08-03T13:57:36.173Z,6.15
2018-08-03T14:00:07.980Z,7.55
2018-08-03T14:02:37.940Z,6.78
2018-08-03T14:05:07.966Z,6.70
2018-08-03T14:07:37.592Z,6.45
2018-08-03T14:10:07.966Z,6.40
2018-08-03T14:12:37.647Z,6.10
2018-08-03T14:15:07.874Z,5.78
2018-08-03T14:17:37.784Z,6.78
2018-08-03T14:20:08.514Z,6.28
2018-08-03T14:22:38.474Z,6.75
2018-08-03T14:25:08.258Z,6.80
2018-08-03T14:27:37.867Z,5.95
2018-08-03T14:30:08.381Z,6.80
2018-08-03T14:32:38.043Z,7.62
2018-08-03T14:35:07.551Z,6.95
2018-08-03T14:37:37.159Z,6.20
2018-08-03T14:40:06.873Z,6.05
2018-08-03T14:42:36.635Z,6.65
2018-08-03T14:45:07.712Z,7.03
2018-08-03T14:47:37.633Z,7.00
2018-08-03T14:50:07.421Z,6.85
2018-08-03T14:52:37.179Z,6.92
2018-08-03T14:55:07.130Z,6.37
2018-08-03T14:57:37.608Z,6.78
2018-08-03T15:00:07.979Z,6.00
2018-08-03T15:02:37.668Z,6.67
2018-08-03T15:05:07.403Z,7.17
2018-08-03T15:07:37.113Z,6.80
2018-08-03T15:10:06.769Z,7.72
2018-08-03T15:12:36.848Z,6.28
2018-08-03T15:15:07.018Z,6.95
2018-08-03T15:17:37.247Z,8.05
2018-08-03T15:20:08.683Z,6.33
2018-08-03T15:22:38.361Z,7.15
2018-08-03T15:25:08.216Z,6.97
2018-08-03T15:27:38.212Z,7.00
2018-08-03T15:30:09.801Z,7.15
2018-08-03T15:32:39.515Z,8.08
2018-08-03T15:35:09.273Z,6.62
2018-08-03T15:37:38.795Z,8.30
2018-08-03T15:40:09.122Z,7.20
2018-08-03T15:42:38.830Z,7.30
2018-08-03T15:45:08.927Z,6.97
2018-08-03T15:47:38.727Z,6.58
2018-08-03T15:50:08.714Z,6.92
2018-08-03T15:52:38.553Z,8.20
2018-08-03T15:55:08.283Z,7.83
2018-08-03T15:57:38.289Z,6.72
2018-08-03T16:00:09.112Z,7.42
2018-08-03T16:02:38.852Z,7.28
2018-08-03T16:05:09.336Z,6.28
2018-08-03T16:07:38.887Z,8.18
2018-08-03T16:10:08.494Z,7.78
2018-08-03T16:12:38.218Z,7.95
2018-08-03T16:15:08.140Z,8.53
2018-08-03T16:17:38.043Z,7.47
2018-08-03T16:20:07.857Z,7.22
2018-08-03T16:22:37.744Z,8.53
2018-08-03T16:25:07.822Z,7.15
2018-08-03T16:27:38.011Z,7.58
2018-08-03T16:30:08.896Z,7.58
2018-08-03T16:32:38.815Z,6.95
2018-08-03T16:35:09.160Z,7.83
2018-08-03T16:37:38.735Z,6.83
2018-08-03T16:40:09.427Z,7.08
2018-08-03T16:42:39.427Z,8.05
2018-08-03T16:45:09.447Z,8.18
2018-08-03T16:47:39.465Z,8.80
2018-08-03T16:50:09.699Z,7.92
2018-08-03T16:52:39.611Z,7.47
2018-08-03T16:55:09.396Z,7.87
2018-08-03T16:57:39.290Z,8.23
2018-08-03T17:00:09.434Z,7.40
2018-08-03T17:02:39.627Z,8.73
2018-08-03T17:05:09.434Z,7.83
2018-08-03T17:07:39.762Z,6.95
2018-08-03T17:10:10.399Z,7.90
2018-08-03T17:12:40.902Z,8.83
2018-08-03T17:15:10.598Z,7.92
2018-08-03T17:17:41.135Z,7.95
2018-08-03T17:20:10.925Z,7.40
2018-08-03T17:22:40.517Z,7.75
2018-08-03T17:25:10.370Z,7.35
2018-08-03T17:27:40.025Z,8.33
2018-08-03T17:30:10.084Z,9.68
2018-08-03T17:32:39.766Z,8.48
2018-08-03T17:35:09.428Z,7.87
2018-08-03T17:37:39.191Z,8.55
2018-08-03T17:40:08.942Z,8.68
2018-08-03T17:42:38.858Z,9.10
2018-08-03T17:45:08.783Z,9.18
2018-08-03T17:47:38.441Z,10.18
2018-08-03T17:50:08.374Z,10.15
2018-08-03T17:52:38.045Z,10.80
2018-08-03T17:55:09.203Z,10.72
2018-08-03T17:57:38.879Z,10.35
2018-08-03T18:00:08.707Z,10.00
2018-08-03T18:02:38.475Z,9.63
2018-08-03T18:05:07.978Z,11.35
2018-08-03T18:07:37.666Z,13.28
2018-08-03T18:10:08.086Z,13.32
2018-08-03T18:12:37.965Z,11.22
2018-08-03T18:15:08.713Z,10.53
2018-08-03T18:17:38.323Z,9.78
2018-08-03T18:20:08.441Z,10.78
2018-08-03T18:22:37.989Z,10.68
2018-08-03T18:25:07.763Z,10.20
2018-08-03T18:27:37.619Z,11.50
2018-08-03T18:30:07.846Z,11.78
2018-08-03T18:32:37.643Z,11.03
2018-08-03T18:35:07.193Z,11.60
2018-08-03T18:37:37.354Z,13.68
2018-08-03T18:40:09.339Z,12.50
2018-08-03T18:42:39.422Z,11.95
2018-08-03T18:45:09.507Z,11.22
2018-08-03T18:47:39.223Z,12.13
2018-08-03T18:50:09.042Z,12.43
2018-08-03T18:52:38.736Z,15.15
2018-08-03T18:55:08.474Z,12.55
2018-08-03T18:57:38.296Z,12.95
2018-08-03T19:00:08.323Z,12.70
2018-08-03T19:02:37.990Z,13.33
2018-08-03T19:05:08.085Z,14.50
2018-08-03T19:07:38.109Z,11.73
2018-08-03T19:10:07.997Z,13.08
2018-08-03T19:12:37.762Z,11.05
2018-08-03T19:15:08.053Z,12.98
2018-08-03T19:17:37.894Z,14.77
2018-08-03T19:20:08.426Z,37.65
2018-08-03T19:22:38.052Z,16.43
2018-08-03T19:25:07.748Z,11.88
2018-08-03T19:27:37.674Z,14.80
2018-08-03T19:30:07.675Z,13.28
2018-08-03T19:32:37.202Z,11.63
2018-08-03T19:35:06.939Z,11.40
2018-08-03T19:37:36.969Z,12.28
2018-08-03T19:40:07.458Z,13.83
2018-08-03T19:42:37.435Z,13.25
2018-08-03T19:45:07.683Z,12.63
2018-08-03T19:47:37.464Z,12.37
2018-08-03T19:50:08.853Z,12.75
2018-08-03T19:52:38.570Z,12.33
2018-08-03T19:55:08.594Z,11.30
2018-08-03T19:57:38.160Z,13.47
2018-08-03T20:00:10.164Z,13.27
2018-08-03T20:02:40.155Z,13.58
2018-08-03T20:05:10.465Z,11.10
2018-08-03T20:07:40.418Z,12.13
2018-08-03T20:10:10.546Z,12.17
2018-08-03T20:12:40.450Z,12.20
2018-08-03T20:15:10.510Z,13.73
2018-08-03T20:17:40.556Z,11.43
2018-08-03T20:20:10.367Z,10.30
2018-08-03T20:22:40.011Z,11.57
2018-08-03T20:25:09.866Z,10.57
2018-08-03T20:27:39.663Z,11.70
2018-08-03T20:30:09.601Z,13.23
2018-08-03T20:32:39.242Z,11.10
2018-08-03T20:35:09.046Z,11.40
2018-08-03T20:37:38.938Z,19.17
2018-08-03T20:40:09.230Z,15.63
2018-08-03T20:42:39.132Z,12.23
2018-08-03T20:45:08.930Z,12.93
2018-08-03T20:47:38.623Z,11.40
2018-08-03T20:50:08.273Z,11.53
2018-08-03T20:52:37.935Z,11.27
2018-08-03T20:55:07.862Z,15.27
2018-08-03T20:57:37.644Z,15.20
2018-08-03T21:00:07.644Z,11.20
2018-08-03T21:02:37.230Z,9.93
2018-08-03T21:05:07.238Z,9.53
2018-08-03T21:07:37.002Z,10.33
2018-08-03T21:10:07.133Z,10.10
2018-08-03T21:12:36.936Z,10.33
2018-08-03T21:15:08.177Z,9.97
2018-08-03T21:17:37.847Z,10.30
2018-08-03T21:20:08.765Z,9.67
2018-08-03T21:22:38.742Z,10.03
2018-08-03T21:25:09.251Z,9.97
2018-08-03T21:27:44.995Z,10.07
2018-08-03T21:30:14.679Z,9.33
2018-08-03T21:32:44.139Z,10.20
2018-08-03T21:35:13.708Z,9.23
2018-08-03T21:37:43.434Z,10.07
2018-08-03T21:40:13.441Z,9.90
2018-08-03T21:42:43.150Z,9.37
2018-08-03T21:45:13.017Z,10.30
2018-08-03T21:47:42.946Z,9.60
2018-08-03T21:50:12.845Z,9.83
2018-08-03T21:52:42.906Z,9.20
2018-08-03T21:55:12.826Z,9.57
2018-08-03T21:57:42.472Z,9.37
2018-08-03T22:00:16.872Z,10.17
2018-08-03T22:02:46.422Z,9.53
2018-08-03T22:05:16.117Z,9.60
2018-08-03T22:07:46.334Z,9.80
2018-08-03T22:10:15.921Z,10.10
2018-08-03T22:12:45.956Z,9.33
2018-08-03T22:15:16.766Z,10.83
2018-08-03T22:17:46.435Z,10.03
2018-08-03T22:20:16.258Z,10.27
2018-08-03T22:22:46.320Z,10.73
2018-08-03T22:25:16.310Z,10.83
2018-08-03T22:27:46.046Z,11.13
2018-08-03T22:30:15.865Z,10.70
2018-08-03T22:32:45.657Z,10.60
2018-08-03T22:35:15.120Z,10.50
2018-08-03T22:37:44.909Z,9.13
2018-08-03T22:40:14.438Z,11.53
2018-08-03T22:42:44.468Z,10.63
2018-08-03T22:45:14.075Z,10.47
2018-08-03T22:47:43.844Z,10.03
2018-08-03T22:50:13.606Z,9.90
2018-08-03T22:52:43.421Z,9.80
2018-08-03T22:55:13.158Z,10.67
2018-08-03T22:57:42.810Z,11.20
2018-08-03T23:00:12.650Z,10.23
2018-08-03T23:02:42.326Z,11.53
2018-08-03T23:05:11.938Z,11.20
2018-08-03T23:07:41.449Z,11.40
2018-08-03T23:10:11.419Z,11.07
2018-08-03T23:12:41.364Z,10.33
2018-08-03T23:15:11.151Z,11.37
2018-08-03T23:17:40.924Z,11.73
2018-08-03T23:20:10.784Z,11.90
2018-08-03T23:22:40.505Z,12.87
2018-08-03T23:25:10.308Z,13.07
2018-08-03T23:27:39.984Z,13.70
2018-08-03T23:30:10.588Z,13.90
2018-08-03T23:32:40.546Z,13.63
2018-08-03T23:35:10.422Z,14.00
2018-08-03T23:37:39.956Z,15.60
2018-08-03T23:40:09.706Z,14.40
2018-08-03T23:42:39.465Z,14.37
2018-08-03T23:45:09.539Z,14.53
2018-08-03T23:47:39.151Z,13.47
2018-08-03T23:50:15.038Z,13.77
2018-08-03T23:52:45.582Z,13.60
2018-08-03T23:55:16.146Z,14.30
2018-08-03T23:57:46.371Z,13.73
